sensor_id;sensor_type;location;lat;lon;timestamp;P1;durP1;ratioP1;P2;durP2;ratioP2
14474;SDS011;7323;50.848;4.334;2022-10-16T00:00:03;2.17;;;1.00;;
14474;SDS011;7323;50.848;4.334;2022-10-16T00:05:43;3.70;;;1.00;;
14474;SDS011;7323;50.848;4.334;2022-10-16T00:08:12;2.30;;;0.97;;
14474;SDS011;7323;50.848;4.334;2022-10-16T00:13:21;2.50;;;1.00;;
14474;SDS011;7323;50.848;4.334;2022-10-16T00:15:50;1.93;;;1.00;;
14474;SDS011;7323;50.848;4.334;2022-10-16T00:18:29;1.30;;;0.90;;
14474;SDS011;7323;50.848;4.334;2022-10-16T00:21:04;2.70;;;1.23;;
14474;SDS011;7323;50.848;4.334;2022-10-16T00:23:35;2.00;;;1.10;;
14474;SDS011;7323;50.848;4.334;2022-10-16T00:26:17;3.13;;;1.10;;
14474;SDS011;7323;50.848;4.334;2022-10-16T00:29:27;1.53;;;1.13;;
14474;SDS011;7323;50.848;4.334;2022-10-16T00:31:54;3.83;;;1.10;;
14474;SDS011;7323;50.848;4.334;2022-10-16T00:34:22;2.13;;;1.00;;
14474;SDS011;7323;50.848;4.334;2022-10-16T00:42:24;2.17;;;1.20;;
14474;SDS011;7323;50.848;4.334;2022-10-16T00:44:51;1.77;;;0.90;;
14474;SDS011;7323;50.848;4.334;2022-10-16T00:47:30;1.30;;;1.10;;
14474;SDS011;7323;50.848;4.334;2022-10-16T00:50:06;1.97;;;1.20;;
14474;SDS011;7323;50.848;4.334;2022-10-16T00:52:35;3.17;;;0.87;;
14474;SDS011;7323;50.848;4.334;2022-10-16T00:55:04;3.50;;;1.20;;
14474;SDS011;7323;50.848;4.334;2022-10-16T00:57:31;2.07;;;1.30;;
14474;SDS011;7323;50.848;4.334;2022-10-16T00:59:58;2.43;;;1.10;;
14474;SDS011;7323;50.848;4.334;2022-10-16T01:02:24;3.20;;;1.20;;
14474;SDS011;7323;50.848;4.334;2022-10-16T01:04:51;3.27;;;1.47;;
14474;SDS011;7323;50.848;4.334;2022-10-16T01:12:50;3.53;;;1.23;;
14474;SDS011;7323;50.848;4.334;2022-10-16T01:15:25;2.60;;;1.20;;
14474;SDS011;7323;50.848;4.334;2022-10-16T01:28:13;3.60;;;1.30;;
14474;SDS011;7323;50.848;4.334;2022-10-16T01:30:42;4.03;;;1.33;;
14474;SDS011;7323;50.848;4.334;2022-10-16T01:33:13;1.60;;;1.10;;
14474;SDS011;7323;50.848;4.334;2022-10-16T01:35:51;4.40;;;1.40;;
14474;SDS011;7323;50.848;4.334;2022-10-16T01:38:22;3.90;;;1.50;;
14474;SDS011;7323;50.848;4.334;2022-10-16T01:42:01;2.10;;;1.30;;
14474;SDS011;7323;50.848;4.334;2022-10-16T01:43:59;3.70;;;1.50;;
14474;SDS011;7323;50.848;4.334;2022-10-16T01:46:33;3.77;;;1.40;;
14474;SDS011;7323;50.848;4.334;2022-10-16T01:49:02;3.17;;;1.20;;
14474;SDS011;7323;50.848;4.334;2022-10-16T01:51:29;2.00;;;1.20;;
14474;SDS011;7323;50.848;4.334;2022-10-16T01:53:55;4.13;;;1.50;;
14474;SDS011;7323;50.848;4.334;2022-10-16T01:56:26;1.80;;;1.20;;
14474;SDS011;7323;50.848;4.334;2022-10-16T01:59:01;1.90;;;1.30;;
14474;SDS011;7323;50.848;4.334;2022-10-16T02:01:33;2.70;;;1.27;;
14474;SDS011;7323;50.848;4.334;2022-10-16T02:04:03;2.33;;;1.40;;
14474;SDS011;7323;50.848;4.334;2022-10-16T02:06:34;4.87;;;1.47;;
14474;SDS011;7323;50.848;4.334;2022-10-16T02:09:02;4.93;;;1.53;;
14474;SDS011;7323;50.848;4.334;2022-10-16T02:11:28;6.33;;;1.50;;
14474;SDS011;7323;50.848;4.334;2022-10-16T02:17:01;3.47;;;1.33;;
14474;SDS011;7323;50.848;4.334;2022-10-16T02:19:22;2.87;;;1.83;;
14474;SDS011;7323;50.848;4.334;2022-10-16T02:32:51;4.07;;;1.37;;
14474;SDS011;7323;50.848;4.334;2022-10-16T02:35:18;1.77;;;1.23;;
14474;SDS011;7323;50.848;4.334;2022-10-16T02:37:46;4.40;;;1.50;;
14474;SDS011;7323;50.848;4.334;2022-10-16T02:40:13;4.53;;;1.50;;
14474;SDS011;7323;50.848;4.334;2022-10-16T02:42:40;2.87;;;1.33;;
14474;SDS011;7323;50.848;4.334;2022-10-16T02:45:19;2.70;;;1.53;;
14474;SDS011;7323;50.848;4.334;2022-10-16T02:47:46;4.00;;;1.73;;
14474;SDS011;7323;50.848;4.334;2022-10-16T02:50:12;2.63;;;1.57;;
14474;SDS011;7323;50.848;4.334;2022-10-16T02:52:41;2.30;;;1.40;;
14474;SDS011;7323;50.848;4.334;2022-10-16T02:55:07;2.70;;;1.37;;
14474;SDS011;7323;50.848;4.334;2022-10-16T02:57:34;3.87;;;1.67;;
14474;SDS011;7323;50.848;4.334;2022-10-16T03:00:02;3.80;;;1.50;;
14474;SDS011;7323;50.848;4.334;2022-10-16T03:02:32;3.60;;;1.40;;
14474;SDS011;7323;50.848;4.334;2022-10-16T03:04:57;2.60;;;1.83;;
14474;SDS011;7323;50.848;4.334;2022-10-16T03:07:23;4.13;;;2.00;;
14474;SDS011;7323;50.848;4.334;2022-10-16T03:09:49;3.30;;;1.80;;
14474;SDS011;7323;50.848;4.334;2022-10-16T03:12:21;3.73;;;1.80;;
14474;SDS011;7323;50.848;4.334;2022-10-16T03:14:48;3.13;;;1.70;;
14474;SDS011;7323;50.848;4.334;2022-10-16T03:17:14;2.87;;;1.70;;
14474;SDS011;7323;50.848;4.334;2022-10-16T03:19:41;4.30;;;1.87;;
14474;SDS011;7323;50.848;4.334;2022-10-16T03:27:56;2.90;;;1.70;;
14474;SDS011;7323;50.848;4.334;2022-10-16T03:30:22;3.80;;;1.90;;
14474;SDS011;7323;50.848;4.334;2022-10-16T03:32:47;4.77;;;2.37;;
14474;SDS011;7323;50.848;4.334;2022-10-16T03:35:13;3.60;;;1.70;;
14474;SDS011;7323;50.848;4.334;2022-10-16T03:37:38;4.17;;;1.70;;
14474;SDS011;7323;50.848;4.334;2022-10-16T03:40:04;4.23;;;2.03;;
14474;SDS011;7323;50.848;4.334;2022-10-16T03:42:31;3.90;;;1.60;;
14474;SDS011;7323;50.848;4.334;2022-10-16T03:44:56;2.60;;;1.60;;
14474;SDS011;7323;50.848;4.334;2022-10-16T03:47:22;5.00;;;1.87;;
14474;SDS011;7323;50.848;4.334;2022-10-16T03:49:48;3.30;;;2.10;;
14474;SDS011;7323;50.848;4.334;2022-10-16T03:52:18;3.50;;;1.93;;
14474;SDS011;7323;50.848;4.334;2022-10-16T03:54:44;2.63;;;1.80;;
14474;SDS011;7323;50.848;4.334;2022-10-16T03:59:55;5.07;;;1.83;;
14474;SDS011;7323;50.848;4.334;2022-10-16T04:02:21;3.83;;;2.10;;
14474;SDS011;7323;50.848;4.334;2022-10-16T04:04:47;3.20;;;1.60;;
14474;SDS011;7323;50.848;4.334;2022-10-16T04:07:14;4.70;;;1.93;;
14474;SDS011;7323;50.848;4.334;2022-10-16T04:09:39;5.93;;;1.97;;
14474;SDS011;7323;50.848;4.334;2022-10-16T04:12:08;5.20;;;2.10;;
14474;SDS011;7323;50.848;4.334;2022-10-16T04:14:34;4.03;;;1.80;;
14474;SDS011;7323;50.848;4.334;2022-10-16T04:17:00;4.60;;;2.20;;
14474;SDS011;7323;50.848;4.334;2022-10-16T04:21:55;3.80;;;1.93;;
14474;SDS011;7323;50.848;4.334;2022-10-16T04:26:50;3.60;;;2.00;;
14474;SDS011;7323;50.848;4.334;2022-10-16T04:29:18;6.07;;;1.83;;
14474;SDS011;7323;50.848;4.334;2022-10-16T04:31:44;6.23;;;1.80;;
14474;SDS011;7323;50.848;4.334;2022-10-16T04:34:10;5.60;;;1.90;;
14474;SDS011;7323;50.848;4.334;2022-10-16T04:36:35;5.60;;;1.97;;
14474;SDS011;7323;50.848;4.334;2022-10-16T04:39:01;3.87;;;1.67;;
14474;SDS011;7323;50.848;4.334;2022-10-16T04:41:27;5.47;;;1.90;;
14474;SDS011;7323;50.848;4.334;2022-10-16T04:43:52;7.97;;;2.50;;
14474;SDS011;7323;50.848;4.334;2022-10-16T04:46:18;4.67;;;1.80;;
14474;SDS011;7323;50.848;4.334;2022-10-16T04:48:44;3.90;;;1.87;;
14474;SDS011;7323;50.848;4.334;2022-10-16T04:51:10;4.27;;;2.00;;
14474;SDS011;7323;50.848;4.334;2022-10-16T04:53:36;3.77;;;2.00;;
14474;SDS011;7323;50.848;4.334;2022-10-16T04:56:01;7.17;;;2.00;;
14474;SDS011;7323;50.848;4.334;2022-10-16T04:58:27;5.63;;;1.87;;
14474;SDS011;7323;50.848;4.334;2022-10-16T05:00:56;4.20;;;2.10;;
14474;SDS011;7323;50.848;4.334;2022-10-16T05:03:21;3.00;;;1.93;;
14474;SDS011;7323;50.848;4.334;2022-10-16T05:05:47;3.80;;;1.77;;
14474;SDS011;7323;50.848;4.334;2022-10-16T05:08:13;4.30;;;2.10;;
14474;SDS011;7323;50.848;4.334;2022-10-16T05:10:43;4.60;;;2.00;;
14474;SDS011;7323;50.848;4.334;2022-10-16T05:13:09;4.97;;;2.03;;
14474;SDS011;7323;50.848;4.334;2022-10-16T05:15:35;5.33;;;2.00;;
14474;SDS011;7323;50.848;4.334;2022-10-16T05:18:01;3.70;;;2.10;;
14474;SDS011;7323;50.848;4.334;2022-10-16T05:20:26;5.80;;;2.33;;
14474;SDS011;7323;50.848;4.334;2022-10-16T05:22:55;5.87;;;2.37;;
14474;SDS011;7323;50.848;4.334;2022-10-16T05:25:21;4.40;;;1.87;;
14474;SDS011;7323;50.848;4.334;2022-10-16T05:27:47;4.70;;;2.33;;
14474;SDS011;7323;50.848;4.334;2022-10-16T05:30:14;4.33;;;2.00;;
14474;SDS011;7323;50.848;4.334;2022-10-16T05:32:40;3.97;;;2.33;;
14474;SDS011;7323;50.848;4.334;2022-10-16T05:35:06;5.40;;;2.77;;
14474;SDS011;7323;50.848;4.334;2022-10-16T05:37:32;4.87;;;2.50;;
14474;SDS011;7323;50.848;4.334;2022-10-16T05:39:57;6.37;;;2.80;;
14474;SDS011;7323;50.848;4.334;2022-10-16T05:42:23;5.20;;;2.50;;
14474;SDS011;7323;50.848;4.334;2022-10-16T05:44:50;6.00;;;2.50;;
14474;SDS011;7323;50.848;4.334;2022-10-16T05:47:15;6.00;;;3.10;;
14474;SDS011;7323;50.848;4.334;2022-10-16T05:49:42;6.50;;;2.90;;
14474;SDS011;7323;50.848;4.334;2022-10-16T05:52:08;4.23;;;2.80;;
14474;SDS011;7323;50.848;4.334;2022-10-16T05:54:33;7.13;;;2.60;;
14474;SDS011;7323;50.848;4.334;2022-10-16T05:57:00;5.93;;;2.73;;
14474;SDS011;7323;50.848;4.334;2022-10-16T05:59:28;6.10;;;3.30;;
14474;SDS011;7323;50.848;4.334;2022-10-16T06:01:53;5.30;;;2.50;;
14474;SDS011;7323;50.848;4.334;2022-10-16T06:04:20;5.67;;;3.30;;
14474;SDS011;7323;50.848;4.334;2022-10-16T06:06:45;5.40;;;3.00;;
14474;SDS011;7323;50.848;4.334;2022-10-16T06:09:13;3.70;;;2.80;;
14474;SDS011;7323;50.848;4.334;2022-10-16T06:14:09;5.60;;;2.60;;
14474;SDS011;7323;50.848;4.334;2022-10-16T06:16:36;6.77;;;2.93;;
14474;SDS011;7323;50.848;4.334;2022-10-16T06:19:02;6.37;;;2.43;;
14474;SDS011;7323;50.848;4.334;2022-10-16T06:21:37;6.13;;;2.60;;
14474;SDS011;7323;50.848;4.334;2022-10-16T06:24:02;5.17;;;3.00;;
14474;SDS011;7323;50.848;4.334;2022-10-16T06:26:30;3.97;;;2.33;;
14474;SDS011;7323;50.848;4.334;2022-10-16T06:29:04;5.10;;;2.93;;
14474;SDS011;7323;50.848;4.334;2022-10-16T06:31:31;6.73;;;2.87;;
14474;SDS011;7323;50.848;4.334;2022-10-16T06:34:00;5.03;;;2.87;;
14474;SDS011;7323;50.848;4.334;2022-10-16T06:45:23;4.30;;;2.60;;
14474;SDS011;7323;50.848;4.334;2022-10-16T06:47:50;5.47;;;2.70;;
14474;SDS011;7323;50.848;4.334;2022-10-16T06:50:15;3.90;;;2.40;;
14474;SDS011;7323;50.848;4.334;2022-10-16T06:52:41;4.70;;;2.67;;
14474;SDS011;7323;50.848;4.334;2022-10-16T06:55:07;4.67;;;2.13;;
14474;SDS011;7323;50.848;4.334;2022-10-16T06:57:33;5.63;;;2.70;;
14474;SDS011;7323;50.848;4.334;2022-10-16T07:05:27;3.87;;;2.47;;
14474;SDS011;7323;50.848;4.334;2022-10-16T07:07:57;5.63;;;2.37;;
14474;SDS011;7323;50.848;4.334;2022-10-16T07:13:13;3.97;;;2.37;;
14474;SDS011;7323;50.848;4.334;2022-10-16T07:19:06;4.93;;;2.37;;
14474;SDS011;7323;50.848;4.334;2022-10-16T07:21:32;6.20;;;2.80;;
14474;SDS011;7323;50.848;4.334;2022-10-16T07:24:01;5.53;;;2.47;;
14474;SDS011;7323;50.848;4.334;2022-10-16T07:26:34;4.23;;;2.60;;
14474;SDS011;7323;50.848;4.334;2022-10-16T07:29:06;4.67;;;2.33;;
14474;SDS011;7323;50.848;4.334;2022-10-16T07:31:39;5.00;;;2.70;;
14474;SDS011;7323;50.848;4.334;2022-10-16T07:34:05;6.03;;;2.87;;
14474;SDS011;7323;50.848;4.334;2022-10-16T07:36:32;4.30;;;2.80;;
14474;SDS011;7323;50.848;4.334;2022-10-16T07:39:01;4.77;;;2.77;;
14474;SDS011;7323;50.848;4.334;2022-10-16T07:41:28;5.57;;;2.83;;
14474;SDS011;7323;50.848;4.334;2022-10-16T07:43:57;6.43;;;2.63;;
14474;SDS011;7323;50.848;4.334;2022-10-16T07:46:27;4.53;;;2.57;;
14474;SDS011;7323;50.848;4.334;2022-10-16T07:48:53;5.07;;;2.67;;
14474;SDS011;7323;50.848;4.334;2022-10-16T07:51:21;3.90;;;2.13;;
14474;SDS011;7323;50.848;4.334;2022-10-16T07:53:57;5.07;;;2.40;;
14474;SDS011;7323;50.848;4.334;2022-10-16T07:56:22;5.50;;;2.50;;
14474;SDS011;7323;50.848;4.334;2022-10-16T07:58:49;5.90;;;2.63;;
14474;SDS011;7323;50.848;4.334;2022-10-16T08:01:15;5.07;;;2.77;;
14474;SDS011;7323;50.848;4.334;2022-10-16T08:03:49;5.10;;;2.63;;
14474;SDS011;7323;50.848;4.334;2022-10-16T08:06:18;4.77;;;2.47;;
14474;SDS011;7323;50.848;4.334;2022-10-16T08:08:45;3.57;;;2.30;;
14474;SDS011;7323;50.848;4.334;2022-10-16T08:11:12;3.83;;;2.00;;
14474;SDS011;7323;50.848;4.334;2022-10-16T08:13:41;5.10;;;2.57;;
14474;SDS011;7323;50.848;4.334;2022-10-16T08:16:10;3.47;;;2.30;;
14474;SDS011;7323;50.848;4.334;2022-10-16T08:18:39;5.67;;;2.67;;
14474;SDS011;7323;50.848;4.334;2022-10-16T08:21:14;4.23;;;2.27;;
14474;SDS011;7323;50.848;4.334;2022-10-16T08:23:44;4.17;;;2.10;;
14474;SDS011;7323;50.848;4.334;2022-10-16T08:26:12;5.37;;;2.83;;
14474;SDS011;7323;50.848;4.334;2022-10-16T08:28:38;5.63;;;2.23;;
14474;SDS011;7323;50.848;4.334;2022-10-16T08:31:10;5.73;;;2.40;;
14474;SDS011;7323;50.848;4.334;2022-10-16T08:33:36;4.33;;;2.10;;
14474;SDS011;7323;50.848;4.334;2022-10-16T08:36:04;4.63;;;2.43;;
14474;SDS011;7323;50.848;4.334;2022-10-16T08:38:30;5.83;;;2.17;;
14474;SDS011;7323;50.848;4.334;2022-10-16T08:41:22;3.63;;;2.03;;
14474;SDS011;7323;50.848;4.334;2022-10-16T08:49:30;4.87;;;2.50;;
14474;SDS011;7323;50.848;4.334;2022-10-16T08:54:56;5.63;;;2.07;;
14474;SDS011;7323;50.848;4.334;2022-10-16T08:57:34;7.23;;;2.60;;
14474;SDS011;7323;50.848;4.334;2022-10-16T09:00:05;5.37;;;2.20;;
14474;SDS011;7323;50.848;4.334;2022-10-16T09:16:59;8.77;;;2.50;;
14474;SDS011;7323;50.848;4.334;2022-10-16T09:19:38;5.57;;;1.97;;
14474;SDS011;7323;50.848;4.334;2022-10-16T09:22:24;4.53;;;1.90;;
14474;SDS011;7323;50.848;4.334;2022-10-16T09:25:10;5.57;;;1.80;;
14474;SDS011;7323;50.848;4.334;2022-10-16T09:32:51;4.80;;;1.90;;
14474;SDS011;7323;50.848;4.334;2022-10-16T09:35:22;6.37;;;1.97;;
14474;SDS011;7323;50.848;4.334;2022-10-16T09:38:28;7.87;;;1.90;;
14474;SDS011;7323;50.848;4.334;2022-10-16T09:40:57;4.07;;;1.50;;
14474;SDS011;7323;50.848;4.334;2022-10-16T09:46:04;6.77;;;1.90;;
14474;SDS011;7323;50.848;4.334;2022-10-16T09:51:46;4.40;;;1.70;;
14474;SDS011;7323;50.848;4.334;2022-10-16T09:54:15;5.67;;;1.70;;
14474;SDS011;7323;50.848;4.334;2022-10-16T09:56:45;4.80;;;1.83;;
14474;SDS011;7323;50.848;4.334;2022-10-16T09:59:22;4.77;;;1.90;;
14474;SDS011;7323;50.848;4.334;2022-10-16T10:01:56;5.80;;;1.47;;
14474;SDS011;7323;50.848;4.334;2022-10-16T10:04:37;5.83;;;1.90;;
14474;SDS011;7323;50.848;4.334;2022-10-16T10:07:32;5.87;;;1.87;;
14474;SDS011;7323;50.848;4.334;2022-10-16T10:10:04;5.87;;;1.57;;
14474;SDS011;7323;50.848;4.334;2022-10-16T10:12:49;4.57;;;1.57;;
14474;SDS011;7323;50.848;4.334;2022-10-16T10:15:15;7.33;;;1.67;;
14474;SDS011;7323;50.848;4.334;2022-10-16T10:17:55;5.27;;;1.40;;
14474;SDS011;7323;50.848;4.334;2022-10-16T10:22:58;4.70;;;1.70;;
14474;SDS011;7323;50.848;4.334;2022-10-16T10:37:10;5.13;;;1.60;;
14474;SDS011;7323;50.848;4.334;2022-10-16T10:39:51;3.83;;;1.60;;
14474;SDS011;7323;50.848;4.334;2022-10-16T10:42:58;5.07;;;1.93;;
14474;SDS011;7323;50.848;4.334;2022-10-16T10:46:05;4.53;;;1.80;;
14474;SDS011;7323;50.848;4.334;2022-10-16T10:48:44;5.47;;;1.70;;
14474;SDS011;7323;50.848;4.334;2022-10-16T11:03:31;5.23;;;1.60;;
14474;SDS011;7323;50.848;4.334;2022-10-16T11:08:59;7.87;;;1.53;;
14474;SDS011;7323;50.848;4.334;2022-10-16T11:11:36;4.10;;;1.50;;
14474;SDS011;7323;50.848;4.334;2022-10-16T11:20:30;4.53;;;1.50;;
14474;SDS011;7323;50.848;4.334;2022-10-16T11:23:16;4.60;;;1.23;;
14474;SDS011;7323;50.848;4.334;2022-10-16T11:26:02;5.93;;;1.27;;
14474;SDS011;7323;50.848;4.334;2022-10-16T11:28:54;5.53;;;1.40;;
14474;SDS011;7323;50.848;4.334;2022-10-16T11:31:53;5.67;;;1.37;;
14474;SDS011;7323;50.848;4.334;2022-10-16T11:34:25;3.63;;;1.30;;
14474;SDS011;7323;50.848;4.334;2022-10-16T11:37:25;3.87;;;1.20;;
14474;SDS011;7323;50.848;4.334;2022-10-16T11:43:04;3.67;;;1.47;;
14474;SDS011;7323;50.848;4.334;2022-10-16T11:45:54;6.33;;;1.60;;
14474;SDS011;7323;50.848;4.334;2022-10-16T11:48:43;3.07;;;1.50;;
14474;SDS011;7323;50.848;4.334;2022-10-16T11:51:16;4.37;;;1.57;;
14474;SDS011;7323;50.848;4.334;2022-10-16T11:53:55;3.73;;;1.50;;
14474;SDS011;7323;50.848;4.334;2022-10-16T11:56:32;3.93;;;1.50;;
14474;SDS011;7323;50.848;4.334;2022-10-16T11:59:18;5.03;;;1.80;;
14474;SDS011;7323;50.848;4.334;2022-10-16T12:05:16;3.63;;;1.50;;
14474;SDS011;7323;50.848;4.334;2022-10-16T12:08:19;3.60;;;1.10;;
14474;SDS011;7323;50.848;4.334;2022-10-16T12:10:50;3.33;;;1.07;;
14474;SDS011;7323;50.848;4.334;2022-10-16T12:13:46;3.00;;;1.40;;
14474;SDS011;7323;50.848;4.334;2022-10-16T12:18:40;3.67;;;1.30;;
14474;SDS011;7323;50.848;4.334;2022-10-16T12:21:15;2.97;;;1.20;;
14474;SDS011;7323;50.848;4.334;2022-10-16T12:26:39;2.40;;;1.00;;
14474;SDS011;7323;50.848;4.334;2022-10-16T12:29:39;3.90;;;1.10;;
14474;SDS011;7323;50.848;4.334;2022-10-16T12:32:58;3.00;;;0.90;;
14474;SDS011;7323;50.848;4.334;2022-10-16T12:35:30;3.10;;;1.00;;
14474;SDS011;7323;50.848;4.334;2022-10-16T12:38:15;2.50;;;1.10;;
14474;SDS011;7323;50.848;4.334;2022-10-16T12:43:56;4.50;;;1.20;;
14474;SDS011;7323;50.848;4.334;2022-10-16T12:46:35;2.63;;;1.07;;
14474;SDS011;7323;50.848;4.334;2022-10-16T12:52:02;3.70;;;1.30;;
14474;SDS011;7323;50.848;4.334;2022-10-16T12:54:29;3.63;;;1.40;;
14474;SDS011;7323;50.848;4.334;2022-10-16T13:06:39;1.67;;;0.90;;
14474;SDS011;7323;50.848;4.334;2022-10-16T13:12:22;4.87;;;1.73;;
14474;SDS011;7323;50.848;4.334;2022-10-16T13:36:45;3.23;;;1.57;;
14474;SDS011;7323;50.848;4.334;2022-10-16T13:39:20;4.70;;;1.83;;
14474;SDS011;7323;50.848;4.334;2022-10-16T13:42:03;4.67;;;1.60;;
14474;SDS011;7323;50.848;4.334;2022-10-16T13:50:43;6.40;;;3.40;;
14474;SDS011;7323;50.848;4.334;2022-10-16T13:53:12;5.03;;;1.90;;
14474;SDS011;7323;50.848;4.334;2022-10-16T13:55:39;7.67;;;2.10;;
14474;SDS011;7323;50.848;4.334;2022-10-16T13:58:11;4.17;;;2.40;;
14474;SDS011;7323;50.848;4.334;2022-10-16T14:00:38;4.33;;;2.10;;
14474;SDS011;7323;50.848;4.334;2022-10-16T14:03:13;2.80;;;1.50;;
14474;SDS011;7323;50.848;4.334;2022-10-16T14:05:48;3.87;;;1.63;;
14474;SDS011;7323;50.848;4.334;2022-10-16T14:11:37;4.20;;;1.70;;
14474;SDS011;7323;50.848;4.334;2022-10-16T14:17:42;5.43;;;2.20;;
14474;SDS011;7323;50.848;4.334;2022-10-16T14:20:15;6.43;;;2.67;;
14474;SDS011;7323;50.848;4.334;2022-10-16T14:23:00;3.90;;;1.80;;
14474;SDS011;7323;50.848;4.334;2022-10-16T14:29:14;5.67;;;2.30;;
14474;SDS011;7323;50.848;4.334;2022-10-16T14:31:54;6.07;;;2.73;;
14474;SDS011;7323;50.848;4.334;2022-10-16T14:37:35;6.80;;;2.30;;
14474;SDS011;7323;50.848;4.334;2022-10-16T14:40:01;6.27;;;2.20;;
14474;SDS011;7323;50.848;4.334;2022-10-16T14:42:38;5.43;;;2.60;;
14474;SDS011;7323;50.848;4.334;2022-10-16T14:51:44;7.37;;;3.30;;
14474;SDS011;7323;50.848;4.334;2022-10-16T14:54:18;6.07;;;3.17;;
14474;SDS011;7323;50.848;4.334;2022-10-16T14:56:55;6.40;;;2.30;;
14474;SDS011;7323;50.848;4.334;2022-10-16T15:04:49;6.30;;;2.63;;
14474;SDS011;7323;50.848;4.334;2022-10-16T15:09:51;4.53;;;2.27;;
14474;SDS011;7323;50.848;4.334;2022-10-16T15:12:33;8.70;;;3.70;;
14474;SDS011;7323;50.848;4.334;2022-10-16T15:18:27;4.83;;;2.00;;
14474;SDS011;7323;50.848;4.334;2022-10-16T15:21:46;6.30;;;4.10;;
14474;SDS011;7323;50.848;4.334;2022-10-16T15:24:13;8.60;;;3.70;;
14474;SDS011;7323;50.848;4.334;2022-10-16T15:26:49;8.90;;;3.27;;
14474;SDS011;7323;50.848;4.334;2022-10-16T15:29:16;7.37;;;3.33;;
14474;SDS011;7323;50.848;4.334;2022-10-16T15:31:44;9.67;;;3.47;;
14474;SDS011;7323;50.848;4.334;2022-10-16T15:34:12;6.30;;;2.37;;
14474;SDS011;7323;50.848;4.334;2022-10-16T15:39:27;6.77;;;2.50;;
14474;SDS011;7323;50.848;4.334;2022-10-16T15:41:55;3.77;;;1.70;;
14474;SDS011;7323;50.848;4.334;2022-10-16T15:44:21;5.27;;;1.60;;
14474;SDS011;7323;50.848;4.334;2022-10-16T15:49:22;5.87;;;1.83;;
14474;SDS011;7323;50.848;4.334;2022-10-16T15:51:50;5.67;;;1.80;;
14474;SDS011;7323;50.848;4.334;2022-10-16T15:54:22;5.07;;;1.80;;
14474;SDS011;7323;50.848;4.334;2022-10-16T15:56:52;6.63;;;2.23;;
14474;SDS011;7323;50.848;4.334;2022-10-16T15:59:19;5.20;;;2.03;;
14474;SDS011;7323;50.848;4.334;2022-10-16T16:01:51;5.40;;;1.90;;
14474;SDS011;7323;50.848;4.334;2022-10-16T16:04:21;3.90;;;1.53;;
14474;SDS011;7323;50.848;4.334;2022-10-16T16:06:50;4.67;;;1.83;;
14474;SDS011;7323;50.848;4.334;2022-10-16T16:09:20;4.40;;;1.77;;
14474;SDS011;7323;50.848;4.334;2022-10-16T16:17:53;7.13;;;2.60;;
14474;SDS011;7323;50.848;4.334;2022-10-16T16:20:32;6.70;;;2.30;;
14474;SDS011;7323;50.848;4.334;2022-10-16T16:23:07;6.87;;;2.77;;
14474;SDS011;7323;50.848;4.334;2022-10-16T16:25:35;7.93;;;2.77;;
14474;SDS011;7323;50.848;4.334;2022-10-16T16:28:47;6.53;;;2.60;;
14474;SDS011;7323;50.848;4.334;2022-10-16T16:31:17;5.17;;;2.17;;
14474;SDS011;7323;50.848;4.334;2022-10-16T16:37:04;5.67;;;2.80;;
14474;SDS011;7323;50.848;4.334;2022-10-16T16:40:12;4.43;;;2.30;;
14474;SDS011;7323;50.848;4.334;2022-10-16T16:42:43;6.40;;;2.60;;
14474;SDS011;7323;50.848;4.334;2022-10-16T16:45:17;7.40;;;2.67;;
14474;SDS011;7323;50.848;4.334;2022-10-16T16:47:44;4.40;;;2.57;;
14474;SDS011;7323;50.848;4.334;2022-10-16T16:50:10;7.10;;;2.90;;
14474;SDS011;7323;50.848;4.334;2022-10-16T16:52:45;8.20;;;3.10;;
14474;SDS011;7323;50.848;4.334;2022-10-16T16:55:10;7.27;;;3.00;;
14474;SDS011;7323;50.848;4.334;2022-10-16T16:57:36;4.57;;;2.47;;
14474;SDS011;7323;50.848;4.334;2022-10-16T17:00:05;5.80;;;3.03;;
14474;SDS011;7323;50.848;4.334;2022-10-16T17:02:32;10.00;;;5.73;;
14474;SDS011;7323;50.848;4.334;2022-10-16T17:04:59;8.63;;;4.10;;
14474;SDS011;7323;50.848;4.334;2022-10-16T17:07:30;8.63;;;5.30;;
14474;SDS011;7323;50.848;4.334;2022-10-16T17:09:57;10.77;;;6.30;;
14474;SDS011;7323;50.848;4.334;2022-10-16T17:12:26;11.27;;;6.77;;
14474;SDS011;7323;50.848;4.334;2022-10-16T17:14:59;7.40;;;5.63;;
14474;SDS011;7323;50.848;4.334;2022-10-16T17:20:22;12.33;;;6.70;;
14474;SDS011;7323;50.848;4.334;2022-10-16T17:22:48;10.80;;;7.00;;
14474;SDS011;7323;50.848;4.334;2022-10-16T17:25:15;9.60;;;6.93;;
14474;SDS011;7323;50.848;4.334;2022-10-16T17:27:41;11.57;;;6.50;;
14474;SDS011;7323;50.848;4.334;2022-10-16T17:30:07;10.17;;;7.40;;
14474;SDS011;7323;50.848;4.334;2022-10-16T17:32:34;10.37;;;7.57;;
14474;SDS011;7323;50.848;4.334;2022-10-16T17:35:01;11.37;;;7.87;;
14474;SDS011;7323;50.848;4.334;2022-10-16T17:54:20;11.10;;;6.37;;
14474;SDS011;7323;50.848;4.334;2022-10-16T17:56:48;10.73;;;4.70;;
14474;SDS011;7323;50.848;4.334;2022-10-16T17:59:15;7.57;;;4.60;;
14474;SDS011;7323;50.848;4.334;2022-10-16T18:01:47;8.57;;;5.20;;
14474;SDS011;7323;50.848;4.334;2022-10-16T18:04:16;8.77;;;5.00;;
14474;SDS011;7323;50.848;4.334;2022-10-16T18:06:43;6.70;;;4.40;;
14474;SDS011;7323;50.848;4.334;2022-10-16T18:09:11;6.10;;;3.60;;
14474;SDS011;7323;50.848;4.334;2022-10-16T18:11:42;9.13;;;4.97;;
14474;SDS011;7323;50.848;4.334;2022-10-16T18:14:14;8.10;;;5.47;;
14474;SDS011;7323;50.848;4.334;2022-10-16T18:16:42;8.20;;;5.30;;
14474;SDS011;7323;50.848;4.334;2022-10-16T18:19:17;7.70;;;5.50;;
14474;SDS011;7323;50.848;4.334;2022-10-16T18:21:50;7.40;;;5.30;;
14474;SDS011;7323;50.848;4.334;2022-10-16T18:24:22;9.17;;;5.10;;
14474;SDS011;7323;50.848;4.334;2022-10-16T18:26:54;9.47;;;5.57;;
14474;SDS011;7323;50.848;4.334;2022-10-16T18:31:52;7.87;;;5.57;;
14474;SDS011;7323;50.848;4.334;2022-10-16T18:34:21;9.07;;;6.07;;
14474;SDS011;7323;50.848;4.334;2022-10-16T18:36:48;8.77;;;5.73;;
14474;SDS011;7323;50.848;4.334;2022-10-16T18:39:21;10.53;;;5.77;;
14474;SDS011;7323;50.848;4.334;2022-10-16T18:42:09;10.70;;;7.17;;
14474;SDS011;7323;50.848;4.334;2022-10-16T18:44:44;11.40;;;7.00;;
14474;SDS011;7323;50.848;4.334;2022-10-16T18:47:10;9.53;;;6.20;;
14474;SDS011;7323;50.848;4.334;2022-10-16T18:49:36;13.50;;;8.17;;
14474;SDS011;7323;50.848;4.334;2022-10-16T18:52:08;10.10;;;7.50;;
14474;SDS011;7323;50.848;4.334;2022-10-16T18:54:35;10.37;;;8.07;;
14474;SDS011;7323;50.848;4.334;2022-10-16T18:57:03;11.00;;;7.50;;
14474;SDS011;7323;50.848;4.334;2022-10-16T18:59:33;11.13;;;7.17;;
14474;SDS011;7323;50.848;4.334;2022-10-16T19:01:59;9.47;;;6.87;;
14474;SDS011;7323;50.848;4.334;2022-10-16T19:04:25;8.53;;;6.60;;
14474;SDS011;7323;50.848;4.334;2022-10-16T19:06:52;7.77;;;6.17;;
14474;SDS011;7323;50.848;4.334;2022-10-16T19:09:20;9.07;;;6.60;;
14474;SDS011;7323;50.848;4.334;2022-10-16T19:11:50;8.50;;;5.90;;
14474;SDS011;7323;50.848;4.334;2022-10-16T19:14:19;9.07;;;6.30;;
14474;SDS011;7323;50.848;4.334;2022-10-16T19:16:45;7.77;;;5.30;;
14474;SDS011;7323;50.848;4.334;2022-10-16T19:19:18;8.13;;;5.37;;
14474;SDS011;7323;50.848;4.334;2022-10-16T19:21:44;8.90;;;5.80;;
14474;SDS011;7323;50.848;4.334;2022-10-16T19:24:20;10.00;;;6.03;;
14474;SDS011;7323;50.848;4.334;2022-10-16T19:26:45;8.93;;;6.20;;
14474;SDS011;7323;50.848;4.334;2022-10-16T19:29:13;9.30;;;6.60;;
14474;SDS011;7323;50.848;4.334;2022-10-16T19:31:40;8.13;;;6.43;;
14474;SDS011;7323;50.848;4.334;2022-10-16T19:34:08;8.07;;;5.97;;
14474;SDS011;7323;50.848;4.334;2022-10-16T19:36:38;9.00;;;6.57;;
14474;SDS011;7323;50.848;4.334;2022-10-16T19:39:06;8.00;;;6.97;;
14474;SDS011;7323;50.848;4.334;2022-10-16T19:41:40;9.03;;;6.90;;
14474;SDS011;7323;50.848;4.334;2022-10-16T19:44:10;11.63;;;7.07;;
14474;SDS011;7323;50.848;4.334;2022-10-16T19:46:44;9.90;;;6.70;;
14474;SDS011;7323;50.848;4.334;2022-10-16T19:49:14;9.13;;;7.00;;
14474;SDS011;7323;50.848;4.334;2022-10-16T19:54:57;8.47;;;7.17;;
14474;SDS011;7323;50.848;4.334;2022-10-16T20:00:24;8.30;;;5.40;;
14474;SDS011;7323;50.848;4.334;2022-10-16T20:06:09;10.20;;;6.50;;
14474;SDS011;7323;50.848;4.334;2022-10-16T20:08:36;7.83;;;5.73;;